馬公航空站 - ATIS

METAR RCQC 141500Z 03015KT 9999 FEW010 SCT040 19/16 Q1020 RMK A3013=

站台狀態:Online
最後更新:2019-12-14 23:00:01